Solair — DCKY2 — position and weather

sailwx.info

Track history (hours):
 
Tides and Currents Weather Stations Pressure Air Temp Water Temp Dewpoint Dewpoint Depression Visibility Wind Speed Wind Dir Waves Ship Positions

Solair

Last reported at 2017-Dec-23 17:03 UTC. Time now 2018-Feb-20 23:50 UTC.
Position N 14°19' W 060°55'.
Warning: this ship's position is 59 days out of date.

Length 18 m.

Type: Sailing vessel. MMSI: 211160420.

Date/timePositionNaut miles runAvg speedWind from/ knotsBaromVisibWave heightAir tempDewpointWater temp
2017-Dec-23 17:03N 14°19' W 060°55'0 8.1
2017-Dec-23 17:00N 14°20' W 060°55'5 9.3
2017-Dec-23 16:25N 14°25' W 060°55'3 6.9
2017-Dec-23 15:58N 14°27' W 060°53'1 0.0
2017-Dec-22 17:43N 14°28' W 060°52'0 0.0
2017-Dec-22 17:28N 14°28' W 060°52'0 0.1
2017-Dec-22 17:00N 14°28' W 060°52'2 3.7
2017-Dec-22 16:30N 14°27' W 060°54'3 5.6
2017-Dec-22 16:00N 14°24' W 060°55'  
Track history (hours):
 
Tides and Currents Weather Stations Pressure Air Temp Water Temp Dewpoint Dewpoint Depression Visibility Wind Speed Wind Dir Waves Ship Positions

Solair

Last reported at 2017-Dec-23 17:03 UTC. Time now 2018-Feb-20 23:50 UTC.
Position N 14°19' W 060°55'.
Warning: this ship's position is 59 days out of date.

Length 18 m.

Type: Sailing vessel. MMSI: 211160420.

Date/timePositionNaut miles runAvg speedWind from/ knotsBaromVisibWave heightAir tempDewpointWater temp
2017-Dec-23 17:03N 14°19' W 060°55'0 8.1
2017-Dec-23 17:00N 14°20' W 060°55'5 9.3
2017-Dec-23 16:25N 14°25' W 060°55'3 6.9
2017-Dec-23 15:58N 14°27' W 060°53'1 0.0
2017-Dec-22 17:43N 14°28' W 060°52'0 0.0
2017-Dec-22 17:28N 14°28' W 060°52'0 0.1
2017-Dec-22 17:00N 14°28' W 060°52'2 3.7
2017-Dec-22 16:30N 14°27' W 060°54'3 5.6
2017-Dec-22 16:00N 14°24' W 060°55'  

Dump ship's entire track history